< Typhoon 197104 1971 Season Typhoon 197106 >
Typhoon 197105 (AMY)
General InformationTrack Information on Google Maps || Disaster Info.ResourceGoogle EarthGE AnimationAtom FeedGeoJSON
Detalied Best Track (Time Zone = UTC)
Year Month Day Hour Lat. Long. Pressure (hPa) Wind (kt) Class Image Chart
1971 4 27 18 5.0 155.0 1002 0 2 -- Chart
1971 4 28 00 5.7 154.3 1004 0 2 -- Chart
1971 4 28 06 7.0 154.3 1004 0 2 -- Chart
1971 4 28 12 7.0 155.0 1004 0 2 -- Chart
1971 4 28 18 6.8 155.3 1004 0 2 -- Chart
1971 4 29 00 6.6 155.4 1004 0 2 -- Chart
1971 4 29 06 6.5 155.0 1002 0 2 -- Chart
1971 4 29 12 6.5 154.7 1000 0 2 -- Chart
1971 4 29 18 6.6 154.3 998 0 2 -- Chart
1971 4 30 00 6.5 153.7 996 0 9 -- Chart
1971 4 30 06 7.0 153.4 995 0 9 -- Chart
1971 4 30 12 7.1 152.8 995 0 9 -- Chart
1971 4 30 18 7.2 151.9 985 0 9 -- Chart
1971 5 1 00 7.7 151.2 975 0 9 -- Chart
1971 5 1 06 8.3 150.5 960 0 9 -- Chart
1971 5 1 12 8.7 149.5 945 0 9 -- Chart
1971 5 1 18 9.5 148.1 925 0 9 -- Chart
1971 5 2 00 9.9 147.0 900 0 9 -- Chart
1971 5 2 06 10.7 146.3 890 0 9 -- Chart
1971 5 2 12 11.5 145.5 900 0 9 -- Chart
1971 5 2 18 12.1 144.3 920 0 9 -- Chart
1971 5 3 00 12.3 143.5 920 0 9 -- Chart
1971 5 3 06 12.8 142.7 920 0 9 -- Chart
1971 5 3 12 13.4 142.3 910 0 9 -- Chart
1971 5 3 18 13.7 142.0 900 0 9 -- Chart
1971 5 4 00 14.4 142.0 905 0 9 -- Chart
1971 5 4 06 15.3 142.3 910 0 9 -- Chart
1971 5 4 12 16.2 142.6 920 0 9 -- Chart
1971 5 4 18 17.3 143.0 925 0 9 -- Chart
1971 5 5 00 18.4 143.5 935 0 9 -- Chart
1971 5 5 06 19.3 144.2 940 0 9 -- Chart
1971 5 5 12 20.3 144.4 945 0 9 -- Chart
1971 5 5 18 21.1 145.0 950 0 9 -- Chart
1971 5 6 00 22.1 145.7 955 0 9 -- Chart
1971 5 6 06 23.7 146.0 960 0 9 -- Chart
1971 5 6 12 24.7 146.5 965 0 9 -- Chart
1971 5 6 18 26.1 147.6 970 0 9 -- Chart
1971 5 7 00 28.0 149.5 980 0 9 -- Chart
1971 5 7 06 30.5 151.9 985 0 9 -- Chart
1971 5 7 12 33.1 156.0 990 0 9 -- Chart
1971 5 7 18 35.5 160.0 995 0 9 -- Chart
Japan Meteorological Agency Best Track Data | Correction Date : 1989-06-01
< Typhoon 197104 1971 Season Typhoon 197106 >

Help